createdAt,value
2023-05-14T00:00:59.484Z,100771.70
2023-05-14T00:03:26.592Z,100788.16
2023-05-14T00:05:53.612Z,100786.13
2023-05-14T00:08:20.637Z,100784.20
2023-05-14T00:10:47.603Z,100785.66
2023-05-14T00:13:14.502Z,100789.22
2023-05-14T00:15:41.544Z,100785.20
2023-05-14T00:18:12.341Z,100786.16
2023-05-14T00:20:39.504Z,100789.41
2023-05-14T00:23:06.501Z,100794.45
2023-05-14T00:25:33.467Z,100789.58
2023-05-14T00:28:00.430Z,100787.10
2023-05-14T00:30:27.332Z,100787.88
2023-05-14T00:32:54.360Z,100793.89
2023-05-14T00:35:21.716Z,100798.49
2023-05-14T00:37:48.722Z,100796.79
2023-05-14T00:40:15.911Z,100790.92
2023-05-14T00:42:42.831Z,100792.20
2023-05-14T00:45:10.485Z,100793.17
2023-05-14T00:47:39.533Z,100788.92
2023-05-14T00:50:07.309Z,100791.48
2023-05-14T00:52:34.241Z,100793.61
2023-05-14T00:55:03.398Z,100792.14
2023-05-14T00:57:30.601Z,100789.75
2023-05-14T00:59:58.369Z,100789.41
2023-05-14T01:02:25.428Z,100790.27
2023-05-14T01:04:52.468Z,100789.36
2023-05-14T01:07:40.574Z,100790.88
2023-05-14T01:10:32.993Z,100796.63
2023-05-14T01:13:44.690Z,100795.80
2023-05-14T01:16:13.545Z,100798.23
2023-05-14T01:18:41.668Z,100796.00
2023-05-14T01:21:42.950Z,100796.89
2023-05-14T01:24:09.960Z,100812.47
2023-05-14T01:26:37.068Z,100805.38
2023-05-14T01:29:20.811Z,100796.88
2023-05-14T01:31:48.067Z,100799.31
2023-05-14T01:34:15.175Z,100802.38
2023-05-14T01:36:42.390Z,100798.48
2023-05-14T01:39:09.980Z,100801.48
2023-05-14T01:41:37.585Z,100804.20
2023-05-14T01:44:04.568Z,100798.48
2023-05-14T01:46:32.966Z,100797.98
2023-05-14T01:49:00.486Z,100792.72
2023-05-14T01:51:27.549Z,100797.61
2023-05-14T01:53:54.560Z,100795.48
2023-05-14T01:56:23.678Z,100799.15
2023-05-14T01:58:50.671Z,100800.58
2023-05-14T02:01:17.711Z,100794.20
2023-05-14T02:03:44.624Z,100797.09
2023-05-14T02:06:11.642Z,100797.54
2023-05-14T02:08:38.695Z,100801.71
2023-05-14T02:11:05.746Z,100800.55
2023-05-14T02:13:32.635Z,100806.65
2023-05-14T02:15:59.619Z,100813.77
2023-05-14T02:18:26.603Z,100824.40
2023-05-14T02:20:53.570Z,100818.92
2023-05-14T02:23:25.685Z,100805.70
2023-05-14T02:25:58.247Z,100808.77
2023-05-14T02:28:25.260Z,100811.55
2023-05-14T02:30:52.173Z,100810.19
2023-05-14T02:33:19.337Z,100802.34
2023-05-14T02:35:46.343Z,100807.86
2023-05-14T02:38:13.624Z,100804.83
2023-05-14T02:40:40.507Z,100810.72
2023-05-14T02:43:07.433Z,100811.49
2023-05-14T02:45:35.895Z,100818.98
2023-05-14T02:48:02.951Z,100817.30
2023-05-14T02:50:30.972Z,100813.80
2023-05-14T02:52:57.883Z,100816.90
2023-05-14T02:55:26.608Z,100826.04
2023-05-14T02:57:53.556Z,100820.77
2023-05-14T03:00:20.750Z,100816.61
2023-05-14T03:02:48.671Z,100820.63
2023-05-14T03:05:16.138Z,100822.69
2023-05-14T03:07:43.286Z,100824.55
2023-05-14T03:10:10.695Z,100827.98
2023-05-14T03:12:37.696Z,100820.18
2023-05-14T03:15:05.221Z,100820.73
2023-05-14T03:17:32.217Z,100819.23
2023-05-14T03:19:59.241Z,100824.32
2023-05-14T03:22:27.077Z,100825.09
2023-05-14T03:24:54.088Z,100832.73
2023-05-14T03:27:21.106Z,100831.83
2023-05-14T03:29:47.982Z,100827.80
2023-05-14T03:32:15.133Z,100820.79
2023-05-14T03:34:42.441Z,100826.06
2023-05-14T03:37:09.374Z,100833.44
2023-05-14T03:39:36.622Z,100830.57
2023-05-14T03:42:05.411Z,100830.90
2023-05-14T03:44:32.270Z,100825.11
2023-05-14T03:46:59.336Z,100832.52
2023-05-14T03:49:26.514Z,100833.13
2023-05-14T03:51:53.486Z,100828.83
2023-05-14T03:54:20.535Z,100828.34
2023-05-14T03:56:47.645Z,100828.02
2023-05-14T03:59:14.615Z,100832.75
2023-05-14T04:01:41.591Z,100826.66
2023-05-14T04:04:08.655Z,100828.24
2023-05-14T04:06:35.703Z,100832.75
2023-05-14T04:09:03.548Z,100830.80
2023-05-14T04:11:30.599Z,100830.79
2023-05-14T04:13:58.289Z,100834.61
2023-05-14T04:16:25.239Z,100826.40
2023-05-14T04:18:52.263Z,100824.13
2023-05-14T04:21:19.253Z,100821.79
2023-05-14T04:23:46.264Z,100815.66
2023-05-14T04:26:13.282Z,100815.27
2023-05-14T04:28:40.709Z,100815.82
2023-05-14T04:31:07.739Z,100814.22
2023-05-14T04:33:34.684Z,100814.02
2023-05-14T04:36:02.190Z,100812.91
2023-05-14T04:38:29.295Z,100812.33
2023-05-14T04:40:57.029Z,100816.77
2023-05-14T04:43:24.038Z,100811.98
2023-05-14T04:45:52.529Z,100808.39
2023-05-14T04:48:19.673Z,100805.49
2023-05-14T04:50:46.653Z,100803.10
2023-05-14T04:53:13.516Z,100801.09
2023-05-14T04:55:41.478Z,100801.65
2023-05-14T04:58:08.452Z,100801.66
2023-05-14T05:00:35.434Z,100800.46
2023-05-14T05:03:02.439Z,100797.83
2023-05-14T05:05:29.415Z,100796.42
2023-05-14T05:07:56.457Z,100794.80
2023-05-14T05:10:23.888Z,100789.17
2023-05-14T05:12:51.005Z,100787.72
2023-05-14T05:15:18.063Z,100787.27
2023-05-14T05:17:45.026Z,100787.70
2023-05-14T05:20:12.841Z,100786.16
2023-05-14T05:22:39.871Z,100786.55
2023-05-14T05:25:08.231Z,100787.63
2023-05-14T05:27:35.492Z,100790.45
2023-05-14T05:30:02.560Z,100792.55
2023-05-14T05:32:29.856Z,100792.53
2023-05-14T05:34:57.087Z,100788.11
2023-05-14T05:37:24.062Z,100791.75
2023-05-14T05:39:51.009Z,100794.16
2023-05-14T05:42:17.905Z,100792.71
2023-05-14T05:44:44.934Z,100793.34
2023-05-14T05:47:11.950Z,100794.64
2023-05-14T05:49:38.870Z,100791.71
2023-05-14T05:52:05.874Z,100792.30
2023-05-14T05:54:32.960Z,100791.48
2023-05-14T05:57:00.077Z,100792.41
2023-05-14T05:59:27.133Z,100792.98
2023-05-14T06:01:54.231Z,100792.30
2023-05-14T06:04:21.135Z,100791.27
2023-05-14T06:06:48.077Z,100789.49
2023-05-14T06:09:15.084Z,100788.10
2023-05-14T06:11:42.031Z,100785.83
2023-05-14T06:14:09.107Z,100781.91
2023-05-14T06:16:36.093Z,100782.40
2023-05-14T06:19:03.171Z,100781.29
2023-05-14T06:21:30.125Z,100779.98
2023-05-14T06:23:57.203Z,100779.90
2023-05-14T06:26:24.058Z,100781.81
2023-05-14T06:28:51.086Z,100782.27
2023-05-14T06:31:19.040Z,100778.48
2023-05-14T06:33:46.106Z,100775.93
2023-05-14T06:36:13.121Z,100777.25
2023-05-14T06:38:40.111Z,100770.17
2023-05-14T06:41:07.079Z,100771.89
2023-05-14T06:43:34.028Z,100770.97
2023-05-14T06:46:01.518Z,100770.64
2023-05-14T06:48:29.585Z,100766.73
2023-05-14T06:50:56.618Z,100767.42
2023-05-14T06:53:23.648Z,100764.05
2023-05-14T06:55:50.917Z,100764.67
2023-05-14T06:58:17.903Z,100764.99
2023-05-14T07:00:44.890Z,100764.64
2023-05-14T07:03:11.780Z,100763.43
2023-05-14T07:05:40.701Z,100757.27
2023-05-14T07:08:07.620Z,100757.07
2023-05-14T07:10:34.565Z,100756.73
2023-05-14T07:13:01.520Z,100753.92
2023-05-14T07:15:28.393Z,100753.73
2023-05-14T07:17:55.471Z,100745.85
2023-05-14T07:20:24.394Z,100748.55
2023-05-14T07:22:52.373Z,100744.65
2023-05-14T07:25:19.286Z,100742.50
2023-05-14T07:27:46.268Z,100740.93
2023-05-14T07:30:13.452Z,100743.30
2023-05-14T07:32:40.694Z,100739.46
2023-05-14T07:35:08.457Z,100739.40
2023-05-14T07:37:35.392Z,100739.32
2023-05-14T07:40:02.386Z,100737.32
2023-05-14T07:42:36.783Z,100736.30
2023-05-14T07:45:05.379Z,100734.78
2023-05-14T07:47:32.452Z,100732.70
2023-05-14T07:49:59.666Z,100733.27
2023-05-14T07:52:26.601Z,100731.25
2023-05-14T07:54:53.597Z,100729.93
2023-05-14T07:57:20.549Z,100728.22
2023-05-14T07:59:48.148Z,100723.88
2023-05-14T08:02:17.100Z,100721.24
2023-05-14T08:04:44.647Z,100722.05
2023-05-14T08:07:11.809Z,100723.06
2023-05-14T08:09:38.829Z,100716.58
2023-05-14T08:12:06.340Z,100714.84
2023-05-14T08:14:33.388Z,100715.50
2023-05-14T08:17:00.516Z,100715.59
2023-05-14T08:19:28.041Z,100710.40
2023-05-14T08:21:54.946Z,100712.73
2023-05-14T08:24:21.923Z,100710.68
2023-05-14T08:26:48.928Z,100711.33
2023-05-14T08:29:16.678Z,100702.20
2023-05-14T08:31:44.114Z,100699.53
2023-05-14T08:34:11.140Z,100694.89
2023-05-14T08:36:38.871Z,100696.13
2023-05-14T08:39:07.982Z,100694.89
2023-05-14T08:41:35.127Z,100698.65
2023-05-14T08:44:09.515Z,100689.89
2023-05-14T08:46:37.081Z,100693.37
2023-05-14T08:49:40.990Z,100691.85
2023-05-14T08:52:11.584Z,100692.02
2023-05-14T08:54:38.997Z,100685.08
2023-05-14T08:57:06.327Z,100681.04
2023-05-14T08:59:33.213Z,100679.77
2023-05-14T09:02:02.146Z,100676.92
2023-05-14T09:04:29.770Z,100679.84
2023-05-14T09:06:56.728Z,100678.90
2023-05-14T09:09:23.684Z,100676.29
2023-05-14T09:11:51.612Z,100674.64
2023-05-14T09:14:18.663Z,100664.75
2023-05-14T09:16:46.104Z,100665.55
2023-05-14T09:19:13.812Z,100663.36
2023-05-14T09:21:41.052Z,100657.58
2023-05-14T09:24:08.115Z,100651.59
2023-05-14T09:26:35.353Z,100647.02
2023-05-14T09:29:02.677Z,100644.58
2023-05-14T09:31:31.063Z,100642.02
2023-05-14T09:33:58.425Z,100642.16
2023-05-14T09:36:27.203Z,100635.30
2023-05-14T09:38:56.933Z,100633.20
2023-05-14T09:41:24.446Z,100632.51
2023-05-14T09:43:51.698Z,100635.85
2023-05-14T09:46:18.562Z,100632.23
2023-05-14T09:48:46.156Z,100634.66
2023-05-14T09:51:13.324Z,100637.70
2023-05-14T09:53:41.359Z,100633.52
2023-05-14T09:56:08.386Z,100630.96
2023-05-14T09:58:35.295Z,100631.36
2023-05-14T10:01:02.711Z,100628.59
2023-05-14T10:03:29.967Z,100624.85
2023-05-14T10:06:00.037Z,100626.80
2023-05-14T10:08:28.472Z,100622.13
2023-05-14T10:10:56.161Z,100619.47
2023-05-14T10:13:24.686Z,100617.91
2023-05-14T10:16:13.967Z,100618.31
2023-05-14T10:18:43.152Z,100616.64
2023-05-14T10:21:10.166Z,100618.23
2023-05-14T10:23:40.743Z,100618.86
2023-05-14T10:26:08.364Z,100620.07
2023-05-14T10:28:35.553Z,100617.05
2023-05-14T10:31:02.611Z,100617.46
2023-05-14T10:33:29.743Z,100617.52
2023-05-14T10:36:07.349Z,100618.70
2023-05-14T10:38:37.557Z,100614.93
2023-05-14T10:41:12.206Z,100611.70
2023-05-14T10:43:40.171Z,100613.30
2023-05-14T10:46:07.780Z,100607.53
2023-05-14T10:48:34.826Z,100601.94
2023-05-14T10:51:02.640Z,100599.12
2023-05-14T10:53:37.274Z,100606.00
2023-05-14T10:56:13.963Z,100602.21
2023-05-14T10:58:43.043Z,100597.58
2023-05-14T11:01:11.171Z,100598.29
2023-05-14T11:03:43.920Z,100595.42
2023-05-14T11:06:11.745Z,100597.86
2023-05-14T11:08:38.972Z,100589.70
2023-05-14T11:11:09.211Z,100596.50
2023-05-14T11:13:36.208Z,100595.73
2023-05-14T11:16:12.018Z,100593.69
2023-05-14T11:18:49.206Z,100597.91
2023-05-14T11:21:17.479Z,100597.55
2023-05-14T11:23:46.692Z,100603.08
2023-05-14T11:26:13.784Z,100601.17
2023-05-14T11:28:40.902Z,100601.97
2023-05-14T11:31:07.917Z,100601.69
2023-05-14T11:33:34.895Z,100600.92
2023-05-14T11:36:02.217Z,100591.87
2023-05-14T11:38:29.209Z,100594.10
2023-05-14T11:40:57.085Z,100588.98
2023-05-14T11:43:24.149Z,100593.19
2023-05-14T11:45:52.552Z,100594.49
2023-05-14T11:48:20.540Z,100597.59
2023-05-14T11:50:48.566Z,100594.10
2023-05-14T11:53:29.581Z,100595.79
2023-05-14T11:55:58.062Z,100589.39
2023-05-14T11:58:25.063Z,100592.45
2023-05-14T12:00:52.856Z,100591.70
2023-05-14T12:03:25.725Z,100591.90
2023-05-14T12:05:59.772Z,100589.27
2023-05-14T12:08:28.272Z,100595.61
2023-05-14T12:10:55.640Z,100607.26
2023-05-14T12:13:22.869Z,100607.23
2023-05-14T12:15:57.064Z,100602.73
2023-05-14T12:18:33.827Z,100604.31
2023-05-14T12:21:04.501Z,100597.45
2023-05-14T12:23:31.878Z,100593.66
2023-05-14T12:26:03.684Z,100592.48
2023-05-14T12:28:31.182Z,100590.02
2023-05-14T12:30:58.641Z,100586.00
2023-05-14T12:33:28.822Z,100581.13
2023-05-14T12:36:09.937Z,100576.85
2023-05-14T12:38:47.155Z,100574.85
2023-05-14T12:41:14.036Z,100577.16
2023-05-14T12:43:43.220Z,100573.27
2023-05-14T12:46:10.752Z,100573.48
2023-05-14T12:48:37.680Z,100567.11
2023-05-14T12:51:04.688Z,100563.98
2023-05-14T12:53:31.612Z,100563.12
2023-05-14T12:55:58.776Z,100558.84
2023-05-14T12:58:25.654Z,100558.25
2023-05-14T13:00:52.546Z,100563.25
2023-05-14T13:03:19.679Z,100557.98
2023-05-14T13:05:46.708Z,100553.66
2023-05-14T13:08:17.894Z,100553.88
2023-05-14T13:10:45.045Z,100552.19
2023-05-14T13:13:12.150Z,100550.19
2023-05-14T13:15:39.168Z,100554.39
2023-05-14T13:18:06.290Z,100552.14
2023-05-14T13:20:33.916Z,100554.51
2023-05-14T13:23:00.786Z,100555.52
2023-05-14T13:25:27.761Z,100554.07
2023-05-14T13:27:55.241Z,100555.63
2023-05-14T13:30:22.279Z,100555.61
2023-05-14T13:32:49.264Z,100560.45
2023-05-14T13:35:16.314Z,100557.53
2023-05-14T13:37:43.965Z,100551.69
2023-05-14T13:40:11.352Z,100551.34
2023-05-14T13:42:39.949Z,100550.88
2023-05-14T13:45:07.523Z,100553.85
2023-05-14T13:47:34.514Z,100552.73
2023-05-14T13:50:01.481Z,100551.98
2023-05-14T13:52:28.358Z,100552.17
2023-05-14T13:54:55.402Z,100553.60
2023-05-14T13:57:23.245Z,100547.29
2023-05-14T13:59:50.153Z,100550.56
2023-05-14T14:02:17.800Z,100545.99
2023-05-14T14:04:44.933Z,100543.38
2023-05-14T14:07:11.922Z,100540.64
2023-05-14T14:09:39.042Z,100539.44
2023-05-14T14:12:06.752Z,100537.93
2023-05-14T14:14:33.865Z,100536.66
2023-05-14T14:17:00.879Z,100533.01
2023-05-14T14:19:27.897Z,100530.70
2023-05-14T14:21:54.902Z,100530.65
2023-05-14T14:24:21.896Z,100528.22
2023-05-14T14:26:48.732Z,100525.38
2023-05-14T14:29:15.726Z,100527.41
2023-05-14T14:31:43.662Z,100528.48
2023-05-14T14:34:10.911Z,100524.33
2023-05-14T14:36:37.884Z,100526.60
2023-05-14T14:39:04.952Z,100523.38
2023-05-14T14:41:31.911Z,100523.20
2023-05-14T14:43:58.862Z,100525.98
2023-05-14T14:46:25.983Z,100526.16
2023-05-14T14:48:53.136Z,100526.90
2023-05-14T14:51:20.007Z,100524.04
2023-05-14T14:53:47.025Z,100526.16
2023-05-14T14:56:13.980Z,100523.77
2023-05-14T14:58:40.993Z,100523.13
2023-05-14T15:01:07.946Z,100524.00
2023-05-14T15:03:35.368Z,100524.56
2023-05-14T15:06:02.448Z,100517.02
2023-05-14T15:08:29.428Z,100520.29
2023-05-14T15:10:56.659Z,100520.09
2023-05-14T15:13:24.763Z,100519.20
2023-05-14T15:15:52.599Z,100519.81
2023-05-14T15:18:19.776Z,100518.88
2023-05-14T15:20:46.854Z,100515.36
2023-05-14T15:23:13.874Z,100517.88
2023-05-14T15:25:40.777Z,100518.38
2023-05-14T15:28:07.806Z,100516.89
2023-05-14T15:30:34.880Z,100511.55
2023-05-14T15:33:01.933Z,100513.77
2023-05-14T15:35:29.049Z,100508.48
2023-05-14T15:37:59.463Z,100506.88
2023-05-14T15:40:27.397Z,100508.42
2023-05-14T15:42:54.999Z,100508.38
2023-05-14T15:45:21.962Z,100510.98
2023-05-14T15:47:48.966Z,100516.20
2023-05-14T15:50:15.938Z,100515.05
2023-05-14T15:52:42.856Z,100511.31
2023-05-14T15:55:10.410Z,100511.42
2023-05-14T15:57:37.340Z,100510.83
2023-05-14T16:00:13.169Z,100510.88
2023-05-14T16:02:40.334Z,100508.55
2023-05-14T16:05:08.440Z,100506.95
2023-05-14T16:07:36.089Z,100501.00
2023-05-14T16:10:03.576Z,100497.48
2023-05-14T16:12:30.747Z,100543.29
2023-05-14T16:14:57.804Z,100520.48
2023-05-14T16:17:24.844Z,100507.88
2023-05-14T16:19:53.452Z,100501.69
2023-05-14T16:22:22.330Z,100504.27
2023-05-14T16:24:49.246Z,100498.05
2023-05-14T16:27:18.479Z,100495.55
2023-05-14T16:29:45.611Z,100495.54
2023-05-14T16:32:12.748Z,100497.38
2023-05-14T16:34:39.982Z,100495.90
2023-05-14T16:37:06.862Z,100496.80
2023-05-14T16:39:33.754Z,100491.34
2023-05-14T16:42:00.713Z,100484.05
2023-05-14T16:44:27.725Z,100483.69
2023-05-14T16:46:54.688Z,100486.02
2023-05-14T16:49:22.588Z,100486.98
2023-05-14T16:51:49.592Z,100488.43
2023-05-14T16:54:16.751Z,100491.80
2023-05-14T16:56:48.293Z,100491.97
2023-05-14T16:59:15.848Z,100498.45
2023-05-14T17:01:43.503Z,100503.31
2023-05-14T17:04:10.611Z,100507.70
2023-05-14T17:06:37.487Z,100506.06
2023-05-14T17:09:04.417Z,100508.41
2023-05-14T17:11:31.336Z,100509.68
2023-05-14T17:13:58.264Z,100514.86
2023-05-14T17:16:26.124Z,100514.85
2023-05-14T17:18:53.107Z,100513.69
2023-05-14T17:21:20.150Z,100513.79
2023-05-14T17:23:47.157Z,100517.97
2023-05-14T17:26:14.063Z,100516.45
2023-05-14T17:28:41.053Z,100519.02
2023-05-14T17:31:08.054Z,100519.93
2023-05-14T17:33:35.021Z,100522.23
2023-05-14T17:36:02.030Z,100525.55
2023-05-14T17:38:29.005Z,100524.65
2023-05-14T17:40:55.930Z,100526.69
2023-05-14T17:43:22.798Z,100531.23
2023-05-14T17:45:54.543Z,100536.46
2023-05-14T17:48:23.307Z,100539.56
2023-05-14T17:50:51.755Z,100541.21
2023-05-14T17:53:18.803Z,100544.67
2023-05-14T17:55:45.969Z,100545.83
2023-05-14T17:58:14.524Z,100547.52
2023-05-14T18:00:41.652Z,100548.48
2023-05-14T18:03:08.720Z,100553.84
2023-05-14T18:05:35.686Z,100555.67
2023-05-14T18:08:02.736Z,100554.84
2023-05-14T18:10:29.852Z,100555.80
2023-05-14T18:12:56.911Z,100557.24
2023-05-14T18:15:25.718Z,100560.46
2023-05-14T18:17:53.154Z,100560.69
2023-05-14T18:20:20.293Z,100561.44
2023-05-14T18:22:47.191Z,100561.49
2023-05-14T18:25:14.209Z,100563.66
2023-05-14T18:27:44.707Z,100566.69
2023-05-14T18:30:13.906Z,100565.38
2023-05-14T18:32:41.851Z,100559.22
2023-05-14T18:35:09.423Z,100559.25
2023-05-14T18:37:36.656Z,100559.11
2023-05-14T18:40:04.866Z,100562.76
2023-05-14T18:42:31.753Z,100564.30
2023-05-14T18:44:58.690Z,100565.80
2023-05-14T18:47:25.702Z,100562.39
2023-05-14T18:49:55.385Z,100565.85
2023-05-14T18:52:23.155Z,100568.22
2023-05-14T18:54:50.939Z,100562.76
2023-05-14T18:57:17.880Z,100555.69
2023-05-14T18:59:44.880Z,100553.88
2023-05-14T19:02:11.956Z,100551.52
2023-05-14T19:04:51.273Z,100554.84
2023-05-14T19:07:19.771Z,100550.67
2023-05-14T19:09:46.717Z,100551.98
2023-05-14T19:12:14.108Z,100549.06
2023-05-14T19:14:41.051Z,100549.30
2023-05-14T19:17:07.993Z,100549.90
2023-05-14T19:19:34.843Z,100549.42
2023-05-14T19:22:01.761Z,100552.77
2023-05-14T19:24:28.756Z,100550.48
2023-05-14T19:26:56.038Z,100549.04
2023-05-14T19:29:23.069Z,100550.98
2023-05-14T19:31:50.163Z,100550.84
2023-05-14T19:34:17.215Z,100554.73
2023-05-14T19:36:44.170Z,100561.55
2023-05-14T19:39:11.111Z,100565.73
2023-05-14T19:41:38.136Z,100570.02
2023-05-14T19:44:05.152Z,100567.81
2023-05-14T19:46:32.180Z,100569.48
2023-05-14T19:48:59.240Z,100568.10
2023-05-14T19:51:26.340Z,100564.20
2023-05-14T19:53:53.297Z,100560.25
2023-05-14T19:56:20.190Z,100558.58
2023-05-14T19:58:47.274Z,100560.19
2023-05-14T20:01:14.790Z,100560.03
2023-05-14T20:03:42.036Z,100562.89
2023-05-14T20:06:09.101Z,100568.59
2023-05-14T20:08:36.088Z,100570.43
2023-05-14T20:11:03.450Z,100570.89
2023-05-14T20:13:33.260Z,100569.94
2023-05-14T20:16:00.208Z,100570.06
2023-05-14T20:18:27.338Z,100568.80
2023-05-14T20:20:54.943Z,100570.14
2023-05-14T20:23:21.893Z,100574.05
2023-05-14T20:25:48.866Z,100573.77
2023-05-14T20:28:15.889Z,100572.99
2023-05-14T20:30:42.918Z,100569.73
2023-05-14T20:33:10.201Z,100564.19
2023-05-14T20:35:37.363Z,100561.76
2023-05-14T20:38:04.353Z,100554.59
2023-05-14T20:40:32.834Z,100550.39
2023-05-14T20:42:59.952Z,100547.27
2023-05-14T20:45:27.291Z,100547.80
2023-05-14T20:47:54.520Z,100547.14
2023-05-14T20:50:22.696Z,100551.89
2023-05-14T20:52:49.588Z,100549.13
2023-05-14T20:55:16.808Z,100548.80
2023-05-14T20:57:43.890Z,100547.78
2023-05-14T21:00:11.413Z,100549.73
2023-05-14T21:02:38.714Z,100546.07
2023-05-14T21:05:06.594Z,100546.98
2023-05-14T21:07:33.696Z,100549.96
2023-05-14T21:10:01.848Z,100546.14
2023-05-14T21:12:28.876Z,100547.91
2023-05-14T21:14:56.012Z,100546.19
2023-05-14T21:17:22.958Z,100550.40
2023-05-14T21:19:50.114Z,100546.91
2023-05-14T21:22:17.072Z,100539.93
2023-05-14T21:24:44.007Z,100539.25
2023-05-14T21:27:10.943Z,100536.11
2023-05-14T21:29:37.898Z,100537.66
2023-05-14T21:32:05.778Z,100538.71
2023-05-14T21:34:32.849Z,100542.20
2023-05-14T21:36:59.759Z,100544.12
2023-05-14T21:39:26.664Z,100543.08
2023-05-14T21:41:53.650Z,100539.59
2023-05-14T21:44:21.812Z,100537.84
2023-05-14T21:46:48.688Z,100541.15
2023-05-14T21:49:15.568Z,100537.65
2023-05-14T21:51:42.982Z,100537.30
2023-05-14T21:54:09.869Z,100536.77
2023-05-14T21:56:37.255Z,100538.52
2023-05-14T21:59:05.035Z,100542.73
2023-05-14T22:01:33.795Z,100538.34
2023-05-14T22:04:05.745Z,100539.21
2023-05-14T22:06:33.852Z,100537.48
2023-05-14T22:09:00.743Z,100534.67
2023-05-14T22:11:28.022Z,100533.63
2023-05-14T22:13:54.866Z,100535.52
2023-05-14T22:16:22.550Z,100533.79
2023-05-14T22:18:49.685Z,100532.02
2023-05-14T22:21:16.759Z,100529.73
2023-05-14T22:23:43.872Z,100526.05
2023-05-14T22:26:11.320Z,100521.31
2023-05-14T22:28:42.882Z,100520.61
2023-05-14T22:31:10.463Z,100521.28
2023-05-14T22:33:37.540Z,100525.61
2023-05-14T22:36:07.088Z,100523.48
2023-05-14T22:38:34.291Z,100521.36
2023-05-14T22:41:01.303Z,100523.23
2023-05-14T22:43:28.764Z,100518.84
2023-05-14T22:45:55.732Z,100528.38
2023-05-14T22:48:22.648Z,100524.54
2023-05-14T22:50:49.477Z,100524.17
2023-05-14T22:53:16.376Z,100521.55
2023-05-14T22:55:43.357Z,100521.18
2023-05-14T22:58:10.401Z,100519.58
2023-05-14T23:00:37.483Z,100519.69
2023-05-14T23:03:04.589Z,100516.13
2023-05-14T23:05:31.541Z,100514.69
2023-05-14T23:07:58.443Z,100510.99
2023-05-14T23:10:25.511Z,100513.06
2023-05-14T23:12:52.388Z,100509.92
2023-05-14T23:15:19.366Z,100513.73
2023-05-14T23:17:46.437Z,100514.22
2023-05-14T23:20:13.703Z,100515.23
2023-05-14T23:22:40.915Z,100519.55
2023-05-14T23:25:08.250Z,100522.85
2023-05-14T23:27:35.515Z,100523.34
2023-05-14T23:30:03.815Z,100520.90
2023-05-14T23:32:30.950Z,100517.94
2023-05-14T23:34:58.120Z,100520.20
2023-05-14T23:37:24.994Z,100522.47
2023-05-14T23:39:52.308Z,100521.29
2023-05-14T23:42:19.321Z,100518.52
2023-05-14T23:44:46.366Z,100518.73
2023-05-14T23:47:13.349Z,100522.20
2023-05-14T23:49:40.930Z,100523.34
2023-05-14T23:52:07.899Z,100522.06
2023-05-14T23:54:34.937Z,100522.72
2023-05-14T23:57:03.382Z,100522.66
2023-05-14T23:59:30.372Z,100524.58
